Gainesville, Georgia
Current Conditions -  °F | °C
As of 10:53 PM on Thursday 27 Nov 2014 (Local Time) from KGVL Reporting Station
Clear Clear  
Wind Chill: 26°   Ceiling: Unl
Heat Index: 34°   Visibility: 10mi
Dew Point: 22°   Wind: 10mph
Humidity: 61%   Direction: 300°WNW
Pressure: 30.35"   Gusts: NA
Location:  34.3°N, 83.82°W
Report Text: KGVL 280353Z AUTO 30009KT 10SM CLR 01/M06 A3035 RMK AO2 SLP280 T00111056
Loading
Personal Weather Stations






























Interactive Weather Map New forecast layout! Learn more

10-Day Weather Forecast

Advertisements
Track Severe Weather on mobile